• Join FlightAware (Why Join?)
  • Login
  • US Flag 
07:53PM EDT


 

Airport Tracker/Info


-or-


 

Live Flight TrackerFlight Track Log ✈ UAL6129 ✈ 17-Oct-2013 ✈ KDAL - KIAH

Flight Track Log - Related Links

Times and Time Zones

All times are in EDT time to prevent confusion due to time zone crossing. See the UAL6129 flight status page for this flight to view local times or setup timezone preferences in your user account.

Time Position Orientation Groundspeed Altitude Reporting Facility
EDT Latitude Longitude Course Direction KTS MPH feet Rate Location/Type
09:46AM 32.9333 -96.9167 328° Northwest 229 264 4,300  Level Dallas / Fort Worth TRACON
09:47AM 32.6086 -96.9401 161° South  Level FlightAware Approximate
09:47AM 32.9667 -96.8500 59° Northeast 282 325 6,500  Level Dallas / Fort Worth TRACON
09:48AM 32.5284 -96.9080 161° South  Level FlightAware Approximate
09:48AM 32.9500 -96.7500 101° East 300 345 8,700  Level Dallas / Fort Worth TRACON
09:49AM 32.4484 -96.8750 159° South  Level FlightAware Approximate
09:49AM 32.8108 -96.7411 177° South 316 364 10,900  Level Fort Worth Center
09:50AM 32.3694 -96.8391 159° South  Level FlightAware Approximate
09:50AM 32.7022 -96.7469 183° South 345 397 12,400  Level Fort Worth Center
09:51AM 32.6147 -96.7622 188° South 357 411 14,000 1,560 Climbing Fort Worth Center
09:52AM 32.5083 -96.7803 188° South 357 411 15,600 1,440 Climbing Fort Worth Center
09:53AM 32.4206 -96.7931 187° South 352 405 16,900 1,200 Climbing Fort Worth Center
09:54AM 32.3122 -96.8136 189° South 352 405 18,000 1,080 Climbing Fort Worth Center
09:55AM 32.2075 -96.7872 168° South 363 418 19,100 1,140 Climbing Fort Worth Center
09:56AM 32.1072 -96.7486 162° South 374 430 20,300 900 Climbing Fort Worth Center
09:57AM 32.0006 -96.7103 163° South 387 445 21,000 300 Climbing Fort Worth Center
09:58AM 31.8875 -96.6647 161° South 405 466 21,000  Level Fort Worth Center
09:59AM 31.7703 -96.6192 162° South 437 503 21,000  Level Fort Worth Center
10:01AM 31.6397 -96.5631 160° South 441 507 21,000  Level Houston Center
10:02AM 31.5231 -96.5161 161° South 438 504 21,000  Level Houston Center
10:03AM 31.4061 -96.4611 158° South 446 513 21,000  Level Houston Center
10:04AM 31.2942 -96.3883 151° Southeast 453 521 21,000  Level Houston Center
10:05AM 31.1842 -96.3175 151° Southeast 447 514 21,000  Level Houston Center
10:06AM 31.0719 -96.2478 152° Southeast 448 516 21,000  Level Houston Center
10:07AM 30.9600 -96.1769 152° Southeast 452 520 21,000 -240 Level Houston Center
10:08AM 30.8475 -96.1072 152° Southeast 452 520 20,600 -1,260 Descending Houston Center
10:09AM 30.7397 -96.0394 152° Southeast 441 507 18,500 -2,160 Descending Houston Center
10:10AM 30.6372 -95.9775 153° Southeast 426 490 16,600 -2,040 Descending Houston Center
10:10AM 30.6331 -95.9736 141° Southeast 427 491 16,400 -2,580 Descending Houston Center
10:10AM 30.6061 -95.9567 152° Southeast 421 484 15,800 -3,000 Descending Houston Center
10:11AM 30.5147 -95.8994 152° Southeast 408 470 13,300 -2,820 Descending Houston Center
10:11AM 30.5019 -95.8936 159° South 396 456 12,900 -1,200 Descending Houston Center
10:12AM 30.4233 -95.8308 145° Southeast 392 451 12,100 -840 Descending Houston Center
10:12AM 30.4025 -95.8108 140° Southeast 398 458 12,000 -240 Descending Houston Center
10:13AM 30.3417 -95.7450 137° Southeast 397 457 11,900  Descending Houston Center
10:13AM 30.3283 -95.7322 140° Southeast 398 458 12,000 -1,200 Climbing Houston Center
10:14AM 30.2633 -95.6619 137° Southeast 386 444 10,700 -1,560 Descending Houston Center
10:14AM 30.2428 -95.6433 142° Southeast 344 396 10,300 -1,440 Descending Houston Center
10:15AM 30.1828 -95.5825 139° Southeast 295 339 9,200 -1,500 Descending Houston Center
10:16AM 30.1367 -95.5319 137° Southeast 295 339 7,500 -2,100 Descending Houston Center
10:16AM 30.1225 -95.5172 138° Southeast 293 337 7,100 -540 Descending Houston Center
10:17AM 30.1067 -95.4269 101° East 301 346 7,000 -120 Descending Houston Center
10:17AM 30.1050 -95.4181 102° East 292 336 7,000  Level Houston Center
10:18AM 30.1056 -95.3311 90° East 252 290 7,000  Level Houston Center
10:19AM 30.1067 -95.2581 89° East 258 297 7,000  Level Houston Center
10:19AM 30.1058 -95.2439 94° East 254 292 7,000  Level Houston Center
10:20AM 30.1069 -95.1769 89° East 253 291 7,000  Level Houston Center
10:20AM 30.1067 -95.1617 91° East 255 293 7,000  Level Houston Center
10:21AM 30.1078 -95.0953 89° East 254 292 7,000 -120 Level Houston Center
10:21AM 30.1056 -95.0822 101° East 253 291 6,900 -1,380 Descending Houston Center
10:22AM 30.1069 -95.0139 89° East 253 291 5,600 -1,500 Descending Houston Center
10:22AM 30.1061 -95.0000 94° East 255 293 5,400 -720 Descending Houston Center
10:23AM 30.0689 -94.9633 140° Southeast 246 283 4,900 -360 Descending Houston Center
10:23AM 30.0483 -94.9636 181° South 224 258 5,000 -540 Climbing Houston Center
10:24AM 30.0042 -94.9894 207° Southwest 228 262 4,400 -780 Descending Houston Center
10:24AM 30.0003 -94.9914 203° Southwest 214 246 4,300 -1,380 Descending Houston Center
10:25AM 29.9925 -95.0625 263° West 231 266 3,000 -660 Descending Houston Center
10:26AM 29.9944 -95.1308 272° West 228 262 3,000 -420 Level Houston Center
10:27AM 29.9931 -95.2047 269° West 196 226 2,200 -720 Descending Houston Center
10:27AM 29.9939 -95.1972 83° East 218 251 2,300 -900 Climbing Houston Center
10:28AM 29.9936 -95.2553 270° West 134 154 1,300 -900 Descending Houston Center
10:29AM 29.9942 -95.2522 78° East 194 223 1,400 -840 Climbing Houston Center
10:29AM 29.9933 -95.2986 269° West 123 142 500 -900 Descending Houston Center
10:30AM 29.9942 -95.3031 282° West 151 174 500 -240 Level Houston Center
10:31AM 29.9942 -95.3456 270° West 147 169 300 -240 Descending Houston Center